sensor_id;sensor_type;location;lat;lon;timestamp;pressure;altitude;pressure_sealevel;temperature;humidity
20079;BME280;10199;48.850;8.924;2024-03-23T00:53:49;96508.25;;;8.80;76.69
20079;BME280;10199;48.850;8.924;2024-03-23T00:56:16;96506.78;;;8.71;77.71
20079;BME280;10199;48.850;8.924;2024-03-23T00:58:42;96215.72;;;6.56;77.43
20079;BME280;10199;48.850;8.924;2024-03-23T01:01:09;96296.69;;;7.36;77.57
20079;BME280;10199;48.850;8.924;2024-03-23T01:03:35;96481.66;;;8.75;77.94
20079;BME280;10199;48.850;8.924;2024-03-23T01:06:03;96415.63;;;8.35;77.25
20079;BME280;10199;48.850;8.924;2024-03-23T01:08:29;96403.59;;;8.19;77.99
20079;BME280;10199;48.850;8.924;2024-03-23T01:10:59;95990.88;;;5.58;77.13
20079;BME280;10199;48.850;8.924;2024-03-23T01:13:26;96232.03;;;6.79;77.89
20079;BME280;10199;48.850;8.924;2024-03-23T01:15:55;96214.84;;;7.11;77.85
20079;BME280;10199;48.850;8.924;2024-03-23T01:18:22;96466.66;;;8.75;79.79
20079;BME280;10199;48.850;8.924;2024-03-23T01:20:50;96138.13;;;6.25;80.45
20079;BME280;10199;48.850;8.924;2024-03-23T01:23:16;96362.16;;;7.93;79.70
20079;BME280;10199;48.850;8.924;2024-03-23T01:25:43;96105.31;;;6.43;79.57
20079;BME280;10199;48.850;8.924;2024-03-23T01:28:10;96409.22;;;8.64;79.24
20079;BME280;10199;48.850;8.924;2024-03-23T01:30:37;96114.63;;;6.45;79.16
20079;BME280;10199;48.850;8.924;2024-03-23T01:33:04;96400.09;;;8.60;79.21
20079;BME280;10199;48.850;8.924;2024-03-23T01:35:31;96104.59;;;6.62;78.82
20079;BME280;10199;48.850;8.924;2024-03-23T01:37:57;96440.47;;;8.67;80.78
20079;BME280;10199;48.850;8.924;2024-03-23T01:40:24;96439.06;;;8.78;80.46
20079;BME280;10199;48.850;8.924;2024-03-23T01:42:56;96174.38;;;7.06;79.52
20079;BME280;10199;48.850;8.924;2024-03-23T01:45:25;96428.56;;;9.11;78.74
20079;BME280;10199;48.850;8.924;2024-03-23T01:47:51;96419.84;;;9.17;78.73
20079;BME280;10199;48.850;8.924;2024-03-23T01:50:19;96414.38;;;9.12;79.17
20079;BME280;10199;48.850;8.924;2024-03-23T01:52:46;96021.81;;;6.79;78.10
20079;BME280;10199;48.850;8.924;2024-03-23T01:55:13;96108.50;;;7.27;78.26
20079;BME280;10199;48.850;8.924;2024-03-23T01:57:39;96411.53;;;9.20;79.78
20079;BME280;10199;48.850;8.924;2024-03-23T02:00:07;96156.72;;;7.47;79.02
20079;BME280;10199;48.850;8.924;2024-03-23T02:02:42;96157.13;;;7.51;78.36
20079;BME280;10199;48.850;8.924;2024-03-23T02:05:10;96401.56;;;9.35;78.59
20079;BME280;10199;48.850;8.924;2024-03-23T02:07:38;95969.97;;;6.47;78.57
20079;BME280;10199;48.850;8.924;2024-03-23T02:10:06;96392.44;;;9.38;78.50
20079;BME280;10199;48.850;8.924;2024-03-23T02:12:32;96105.44;;;7.17;78.66
20079;BME280;10199;48.850;8.924;2024-03-23T02:14:59;96396.69;;;9.45;79.11
20079;BME280;10199;48.850;8.924;2024-03-23T02:17:25;96386.53;;;9.42;78.76
20079;BME280;10199;48.850;8.924;2024-03-23T02:19:54;96389.97;;;9.43;79.16
20079;BME280;10199;48.850;8.924;2024-03-23T02:22:20;96386.31;;;9.44;78.97
20079;BME280;10199;48.850;8.924;2024-03-23T02:24:48;96088.88;;;7.23;79.16
20079;BME280;10199;48.850;8.924;2024-03-23T02:27:14;95996.94;;;6.82;79.92
20079;BME280;10199;48.850;8.924;2024-03-23T02:29:42;96163.50;;;8.03;79.54
20079;BME280;10199;48.850;8.924;2024-03-23T02:32:08;96009.28;;;6.81;78.99
20079;BME280;10199;48.850;8.924;2024-03-23T02:34:35;96285.34;;;8.97;79.72
20079;BME280;10199;48.850;8.924;2024-03-23T02:37:02;96362.34;;;9.52;79.89
20079;BME280;10199;48.850;8.924;2024-03-23T02:39:29;96089.13;;;7.67;78.53
20079;BME280;10199;48.850;8.924;2024-03-23T02:41:56;96369.91;;;9.55;79.49
20079;BME280;10199;48.850;8.924;2024-03-23T02:44:24;96339.25;;;9.34;79.23
20079;BME280;10199;48.850;8.924;2024-03-23T02:46:50;95943.53;;;6.48;79.81
20079;BME280;10199;48.850;8.924;2024-03-23T02:49:17;96376.97;;;9.48;80.84
20079;BME280;10199;48.850;8.924;2024-03-23T02:51:43;96126.63;;;8.03;79.53
20079;BME280;10199;48.850;8.924;2024-03-23T02:54:14;95931.03;;;6.70;79.81
20079;BME280;10199;48.850;8.924;2024-03-23T02:56:40;96012.78;;;6.95;79.96
20079;BME280;10199;48.850;8.924;2024-03-23T02:59:09;96361.16;;;9.54;79.92
20079;BME280;10199;48.850;8.924;2024-03-23T03:01:35;95897.03;;;6.35;80.18
20079;BME280;10199;48.850;8.924;2024-03-23T03:04:02;96353.03;;;9.43;79.72
20079;BME280;10199;48.850;8.924;2024-03-23T03:06:31;95807.31;;;5.64;79.93
20079;BME280;10199;48.850;8.924;2024-03-23T03:08:58;96342.50;;;9.36;80.14
20079;BME280;10199;48.850;8.924;2024-03-23T03:11:24;96342.50;;;9.23;81.71
20079;BME280;10199;48.850;8.924;2024-03-23T03:13:52;96239.09;;;8.48;81.61
20079;BME280;10199;48.850;8.924;2024-03-23T03:16:19;96326.50;;;9.18;82.11
20079;BME280;10199;48.850;8.924;2024-03-23T03:18:46;96006.16;;;7.25;81.51
20079;BME280;10199;48.850;8.924;2024-03-23T03:21:13;96339.69;;;9.05;81.26
20079;BME280;10199;48.850;8.924;2024-03-23T03:23:40;96342.31;;;9.24;81.32
20079;BME280;10199;48.850;8.924;2024-03-23T03:26:06;96335.84;;;9.01;81.23
20079;BME280;10199;48.850;8.924;2024-03-23T03:28:34;96338.03;;;9.30;82.16
20079;BME280;10199;48.850;8.924;2024-03-23T03:31:00;96350.84;;;9.26;81.65
20079;BME280;10199;48.850;8.924;2024-03-23T03:33:29;96269.50;;;8.90;81.70
20079;BME280;10199;48.850;8.924;2024-03-23T03:35:55;96265.66;;;8.47;82.39
20079;BME280;10199;48.850;8.924;2024-03-23T03:38:22;96328.28;;;9.37;81.18
20079;BME280;10199;48.850;8.924;2024-03-23T03:40:48;96134.28;;;7.71;81.12
20079;BME280;10199;48.850;8.924;2024-03-23T03:43:15;96174.63;;;8.64;80.34
20079;BME280;10199;48.850;8.924;2024-03-23T03:45:42;96285.47;;;9.22;81.67
20079;BME280;10199;48.850;8.924;2024-03-23T03:48:09;96253.69;;;8.84;81.52
20079;BME280;10199;48.850;8.924;2024-03-23T03:50:36;96283.47;;;9.17;82.36
20079;BME280;10199;48.850;8.924;2024-03-23T03:53:03;96008.78;;;7.45;81.75
20079;BME280;10199;48.850;8.924;2024-03-23T03:55:30;96107.59;;;7.81;81.85
20079;BME280;10199;48.850;8.924;2024-03-23T03:57:57;95795.59;;;6.15;81.43
20079;BME280;10199;48.850;8.924;2024-03-23T04:00:23;95656.94;;;5.31;82.03
20079;BME280;10199;48.850;8.924;2024-03-23T04:02:51;96268.25;;;9.13;82.94
20079;BME280;10199;48.850;8.924;2024-03-23T04:05:17;96001.28;;;7.29;82.87
20079;BME280;10199;48.850;8.924;2024-03-23T04:07:46;96295.19;;;9.41;82.35
20079;BME280;10199;48.850;8.924;2024-03-23T04:10:12;96113.88;;;7.93;84.99
20079;BME280;10199;48.850;8.924;2024-03-23T04:12:39;96319.19;;;9.07;94.20
20079;BME280;10199;48.850;8.924;2024-03-23T04:15:06;96320.59;;;9.16;96.62
20079;BME280;10199;48.850;8.924;2024-03-23T04:17:34;96318.97;;;9.21;99.06
20079;BME280;10199;48.850;8.924;2024-03-23T04:20:00;96145.47;;;7.93;100.00
20079;BME280;10199;48.850;8.924;2024-03-23T04:22:28;96322.44;;;9.09;100.00
20079;BME280;10199;48.850;8.924;2024-03-23T04:24:56;96199.56;;;8.15;100.00
20079;BME280;10199;48.850;8.924;2024-03-23T04:27:23;96324.66;;;9.12;100.00
20079;BME280;10199;48.850;8.924;2024-03-23T04:29:50;96263.44;;;8.70;100.00
20079;BME280;10199;48.850;8.924;2024-03-23T04:32:17;96295.03;;;9.10;100.00
20079;BME280;10199;48.850;8.924;2024-03-23T04:34:44;96298.31;;;9.05;100.00
20079;BME280;10199;48.850;8.924;2024-03-23T04:37:11;96271.97;;;8.85;100.00
20079;BME280;10199;48.850;8.924;2024-03-23T04:39:38;96305.19;;;9.06;100.00
20079;BME280;10199;48.850;8.924;2024-03-23T04:42:07;96316.78;;;8.99;100.00
20079;BME280;10199;48.850;8.924;2024-03-23T04:44:34;96326.09;;;8.94;100.00
20079;BME280;10199;48.850;8.924;2024-03-23T04:47:00;96323.69;;;8.80;100.00
20079;BME280;10199;48.850;8.924;2024-03-23T04:49:27;96330.97;;;8.71;100.00
20079;BME280;10199;48.850;8.924;2024-03-23T04:51:55;96257.72;;;8.20;100.00
20079;BME280;10199;48.850;8.924;2024-03-23T04:54:23;96330.38;;;8.69;100.00
20079;BME280;10199;48.850;8.924;2024-03-23T04:56:50;96341.69;;;8.63;100.00
20079;BME280;10199;48.850;8.924;2024-03-23T04:59:18;96328.91;;;8.60;100.00
20079;BME280;10199;48.850;8.924;2024-03-23T05:01:44;96327.50;;;8.64;100.00
20079;BME280;10199;48.850;8.924;2024-03-23T05:04:12;96249.19;;;8.12;100.00
20079;BME280;10199;48.850;8.924;2024-03-23T05:06:38;96273.31;;;8.22;100.00
20079;BME280;10199;48.850;8.924;2024-03-23T05:09:05;96339.47;;;8.60;100.00
20079;BME280;10199;48.850;8.924;2024-03-23T05:11:32;96110.69;;;7.10;100.00
20079;BME280;10199;48.850;8.924;2024-03-23T05:13:59;96344.53;;;8.55;100.00
20079;BME280;10199;48.850;8.924;2024-03-23T05:16:26;96359.34;;;8.62;100.00
20079;BME280;10199;48.850;8.924;2024-03-23T05:18:54;96342.69;;;8.55;100.00
20079;BME280;10199;48.850;8.924;2024-03-23T05:21:20;96334.56;;;8.44;100.00
20079;BME280;10199;48.850;8.924;2024-03-23T05:23:47;96343.91;;;8.46;100.00
20079;BME280;10199;48.850;8.924;2024-03-23T05:26:14;96290.09;;;8.01;100.00
20079;BME280;10199;48.850;8.924;2024-03-23T05:28:41;96359.09;;;8.38;100.00
20079;BME280;10199;48.850;8.924;2024-03-23T05:31:07;96174.78;;;7.09;100.00
20079;BME280;10199;48.850;8.924;2024-03-23T05:33:36;96363.88;;;8.21;100.00
20079;BME280;10199;48.850;8.924;2024-03-23T05:36:04;96365.25;;;8.10;100.00
20079;BME280;10199;48.850;8.924;2024-03-23T05:38:34;96378.81;;;8.07;100.00
20079;BME280;10199;48.850;8.924;2024-03-23T05:41:00;96377.19;;;7.99;100.00
20079;BME280;10199;48.850;8.924;2024-03-23T05:43:28;96380.41;;;7.95;100.00
20079;BME280;10199;48.850;8.924;2024-03-23T05:45:54;96255.50;;;7.09;100.00
20079;BME280;10199;48.850;8.924;2024-03-23T05:48:25;96320.06;;;7.18;100.00
20079;BME280;10199;48.850;8.924;2024-03-23T05:50:53;96396.50;;;7.79;100.00
20079;BME280;10199;48.850;8.924;2024-03-23T05:53:20;96205.16;;;6.49;100.00
20079;BME280;10199;48.850;8.924;2024-03-23T05:55:47;96389.38;;;7.73;100.00
20079;BME280;10199;48.850;8.924;2024-03-23T05:58:15;96400.09;;;7.71;100.00
20079;BME280;10199;48.850;8.924;2024-03-23T06:00:42;96389.13;;;7.61;100.00
20079;BME280;10199;48.850;8.924;2024-03-23T06:03:09;96410.97;;;7.61;100.00
20079;BME280;10199;48.850;8.924;2024-03-23T06:05:36;96403.66;;;7.57;100.00
20079;BME280;10199;48.850;8.924;2024-03-23T06:08:05;96408.28;;;7.48;100.00
20079;BME280;10199;48.850;8.924;2024-03-23T06:10:32;96405.06;;;7.53;100.00
20079;BME280;10199;48.850;8.924;2024-03-23T06:12:59;96179.75;;;5.86;100.00
20079;BME280;10199;48.850;8.924;2024-03-23T06:15:28;96436.59;;;7.46;100.00
20079;BME280;10199;48.850;8.924;2024-03-23T06:17:57;96428.69;;;7.46;100.00
20079;BME280;10199;48.850;8.924;2024-03-23T06:20:24;96425.88;;;7.48;100.00
20079;BME280;10199;48.850;8.924;2024-03-23T06:22:51;96078.38;;;4.93;100.00
20079;BME280;10199;48.850;8.924;2024-03-23T06:25:18;96265.50;;;6.15;100.00
20079;BME280;10199;48.850;8.924;2024-03-23T06:27:46;96449.34;;;7.21;100.00
20079;BME280;10199;48.850;8.924;2024-03-23T06:30:13;96463.84;;;7.11;100.00
20079;BME280;10199;48.850;8.924;2024-03-23T06:32:40;96473.91;;;7.07;100.00
20079;BME280;10199;48.850;8.924;2024-03-23T06:35:07;96478.53;;;7.05;100.00
20079;BME280;10199;48.850;8.924;2024-03-23T06:37:35;96484.00;;;7.03;100.00
20079;BME280;10199;48.850;8.924;2024-03-23T06:40:02;96487.63;;;7.02;100.00
20079;BME280;10199;48.850;8.924;2024-03-23T06:42:32;96508.13;;;6.92;100.00
20079;BME280;10199;48.850;8.924;2024-03-23T06:44:58;96504.50;;;6.93;100.00
20079;BME280;10199;48.850;8.924;2024-03-23T06:47:25;96501.59;;;7.03;100.00
20079;BME280;10199;48.850;8.924;2024-03-23T06:49:51;96496.38;;;7.10;100.00
20079;BME280;10199;48.850;8.924;2024-03-23T06:52:18;96514.91;;;7.01;100.00
20079;BME280;10199;48.850;8.924;2024-03-23T06:54:47;96472.81;;;6.80;100.00
20079;BME280;10199;48.850;8.924;2024-03-23T06:57:15;96521.31;;;7.14;100.00
20079;BME280;10199;48.850;8.924;2024-03-23T06:59:42;96527.69;;;7.05;100.00
20079;BME280;10199;48.850;8.924;2024-03-23T07:02:10;96545.72;;;6.93;100.00
20079;BME280;10199;48.850;8.924;2024-03-23T07:04:38;96544.75;;;6.94;100.00
20079;BME280;10199;48.850;8.924;2024-03-23T07:07:06;96545.09;;;6.91;100.00
20079;BME280;10199;48.850;8.924;2024-03-23T07:09:32;96538.22;;;6.90;100.00
20079;BME280;10199;48.850;8.924;2024-03-23T07:11:59;96558.19;;;6.84;100.00
20079;BME280;10199;48.850;8.924;2024-03-23T07:14:25;96588.63;;;6.79;100.00
20079;BME280;10199;48.850;8.924;2024-03-23T07:16:54;96564.66;;;6.67;100.00
20079;BME280;10199;48.850;8.924;2024-03-23T07:19:20;96562.03;;;6.67;100.00
20079;BME280;10199;48.850;8.924;2024-03-23T07:21:47;96379.13;;;5.50;100.00
20079;BME280;10199;48.850;8.924;2024-03-23T07:24:15;96567.81;;;6.62;100.00
20079;BME280;10199;48.850;8.924;2024-03-23T07:26:42;96553.94;;;6.68;100.00
20079;BME280;10199;48.850;8.924;2024-03-23T07:29:09;96546.88;;;6.69;100.00
20079;BME280;10199;48.850;8.924;2024-03-23T07:31:39;96555.88;;;6.60;100.00
20079;BME280;10199;48.850;8.924;2024-03-23T07:34:09;96489.03;;;5.89;100.00
20079;BME280;10199;48.850;8.924;2024-03-23T07:36:39;96589.75;;;6.40;100.00
20079;BME280;10199;48.850;8.924;2024-03-23T07:39:05;96426.44;;;5.19;100.00
20079;BME280;10199;48.850;8.924;2024-03-23T07:41:34;96612.03;;;6.29;100.00
20079;BME280;10199;48.850;8.924;2024-03-23T07:44:01;96533.00;;;5.87;100.00
20079;BME280;10199;48.850;8.924;2024-03-23T07:46:30;96400.53;;;4.86;100.00
20079;BME280;10199;48.850;8.924;2024-03-23T07:48:56;96634.16;;;6.35;100.00
20079;BME280;10199;48.850;8.924;2024-03-23T07:51:25;96648.38;;;6.41;100.00
20079;BME280;10199;48.850;8.924;2024-03-23T07:53:51;96645.75;;;6.41;100.00
20079;BME280;10199;48.850;8.924;2024-03-23T07:56:19;96635.59;;;6.37;100.00
20079;BME280;10199;48.850;8.924;2024-03-23T07:58:45;96644.28;;;6.38;100.00
20079;BME280;10199;48.850;8.924;2024-03-23T08:01:16;96550.19;;;5.74;100.00
20079;BME280;10199;48.850;8.924;2024-03-23T08:03:46;96642.75;;;6.58;100.00
20079;BME280;10199;48.850;8.924;2024-03-23T08:06:16;96655.78;;;7.47;100.00
20079;BME280;10199;48.850;8.924;2024-03-23T08:08:52;96657.56;;;7.25;99.95
20079;BME280;10199;48.850;8.924;2024-03-23T08:11:25;96654.50;;;7.21;100.00
20079;BME280;10199;48.850;8.924;2024-03-23T08:13:53;96667.56;;;6.85;100.00
20079;BME280;10199;48.850;8.924;2024-03-23T08:16:20;96709.44;;;6.72;100.00
20079;BME280;10199;48.850;8.924;2024-03-23T08:18:47;96026.03;;;2.62;100.00
20079;BME280;10199;48.850;8.924;2024-03-23T08:21:14;96431.75;;;4.73;100.00
20079;BME280;10199;48.850;8.924;2024-03-23T08:23:40;96696.84;;;6.82;100.00
20079;BME280;10199;48.850;8.924;2024-03-23T08:26:09;96699.56;;;6.89;100.00
20079;BME280;10199;48.850;8.924;2024-03-23T08:28:41;96706.91;;;6.79;100.00
20079;BME280;10199;48.850;8.924;2024-03-23T08:31:10;96711.06;;;6.73;100.00
20079;BME280;10199;48.850;8.924;2024-03-23T08:33:37;96724.97;;;6.96;100.00
20079;BME280;10199;48.850;8.924;2024-03-23T08:36:06;96734.81;;;7.89;98.34
20079;BME280;10199;48.850;8.924;2024-03-23T08:38:32;96733.00;;;8.60;94.72
20079;BME280;10199;48.850;8.924;2024-03-23T08:41:01;96525.19;;;7.67;91.42
20079;BME280;10199;48.850;8.924;2024-03-23T08:43:33;96650.25;;;8.55;89.02
20079;BME280;10199;48.850;8.924;2024-03-23T08:46:04;96707.28;;;9.32;86.06
20079;BME280;10199;48.850;8.924;2024-03-23T08:48:30;96734.81;;;8.81;86.65
20079;BME280;10199;48.850;8.924;2024-03-23T08:51:00;96749.50;;;8.41;86.84
20079;BME280;10199;48.850;8.924;2024-03-23T08:53:27;96751.16;;;8.70;88.54
20079;BME280;10199;48.850;8.924;2024-03-23T08:55:56;96624.22;;;8.17;82.77
20079;BME280;10199;48.850;8.924;2024-03-23T08:58:24;96760.69;;;8.28;83.36
20079;BME280;10199;48.850;8.924;2024-03-23T09:00:53;96635.19;;;7.93;82.39
20079;BME280;10199;48.850;8.924;2024-03-23T09:03:22;96768.50;;;9.14;82.62
20079;BME280;10199;48.850;8.924;2024-03-23T09:05:49;96775.53;;;9.82;78.97
20079;BME280;10199;48.850;8.924;2024-03-23T09:08:18;96750.75;;;9.83;75.54
20079;BME280;10199;48.850;8.924;2024-03-23T09:10:46;96783.19;;;9.64;76.95
20079;BME280;10199;48.850;8.924;2024-03-23T09:13:13;96781.97;;;9.67;74.62
20079;BME280;10199;48.850;8.924;2024-03-23T09:15:46;96787.84;;;9.62;74.39
20079;BME280;10199;48.850;8.924;2024-03-23T09:18:13;96728.94;;;9.20;71.71
20079;BME280;10199;48.850;8.924;2024-03-23T09:20:41;96736.97;;;9.40;72.52
20079;BME280;10199;48.850;8.924;2024-03-23T09:23:07;96788.91;;;10.35;71.95
20079;BME280;10199;48.850;8.924;2024-03-23T09:25:36;96800.31;;;9.06;67.08
20079;BME280;10199;48.850;8.924;2024-03-23T09:28:02;96800.16;;;8.86;68.04
20079;BME280;10199;48.850;8.924;2024-03-23T09:30:29;96810.84;;;8.56;70.35
20079;BME280;10199;48.850;8.924;2024-03-23T09:32:55;96806.94;;;8.31;71.60
20079;BME280;10199;48.850;8.924;2024-03-23T09:35:24;96806.66;;;8.41;71.43
20079;BME280;10199;48.850;8.924;2024-03-23T09:37:50;96796.13;;;8.90;70.33
20079;BME280;10199;48.850;8.924;2024-03-23T09:40:17;96795.88;;;9.95;70.28
20079;BME280;10199;48.850;8.924;2024-03-23T09:42:49;96704.00;;;9.71;65.35
20079;BME280;10199;48.850;8.924;2024-03-23T09:45:17;96750.53;;;9.85;65.92
20079;BME280;10199;48.850;8.924;2024-03-23T09:47:47;96798.84;;;11.52;65.37
20079;BME280;10199;48.850;8.924;2024-03-23T09:50:14;96795.25;;;10.61;64.14
20079;BME280;10199;48.850;8.924;2024-03-23T09:52:42;96796.47;;;10.51;63.89
20079;BME280;10199;48.850;8.924;2024-03-23T09:55:09;96797.84;;;10.34;61.26
20079;BME280;10199;48.850;8.924;2024-03-23T09:57:35;96795.97;;;11.54;64.34
20079;BME280;10199;48.850;8.924;2024-03-23T10:00:03;96784.66;;;11.07;62.82
20079;BME280;10199;48.850;8.924;2024-03-23T10:02:33;96666.28;;;10.30;61.84
20079;BME280;10199;48.850;8.924;2024-03-23T10:05:00;96779.78;;;11.04;61.00
20079;BME280;10199;48.850;8.924;2024-03-23T10:07:26;96785.41;;;11.47;60.98
20079;BME280;10199;48.850;8.924;2024-03-23T10:09:55;96783.41;;;11.36;58.11
20079;BME280;10199;48.850;8.924;2024-03-23T10:12:23;96780.19;;;9.80;61.33
20079;BME280;10199;48.850;8.924;2024-03-23T10:14:50;96781.41;;;11.05;60.20
20079;BME280;10199;48.850;8.924;2024-03-23T10:17:18;96698.41;;;10.66;59.99
20079;BME280;10199;48.850;8.924;2024-03-23T10:19:46;96767.53;;;11.16;57.59
20079;BME280;10199;48.850;8.924;2024-03-23T10:22:14;96777.22;;;10.03;60.40
20079;BME280;10199;48.850;8.924;2024-03-23T10:24:41;96774.19;;;9.17;63.08
20079;BME280;10199;48.850;8.924;2024-03-23T10:27:09;96791.38;;;8.79;65.05
20079;BME280;10199;48.850;8.924;2024-03-23T10:29:36;96807.31;;;8.28;67.71
20079;BME280;10199;48.850;8.924;2024-03-23T10:32:09;96732.78;;;7.55;70.90
20079;BME280;10199;48.850;8.924;2024-03-23T10:34:37;96846.75;;;7.71;73.42
20079;BME280;10199;48.850;8.924;2024-03-23T10:37:04;96860.50;;;6.99;78.84
20079;BME280;10199;48.850;8.924;2024-03-23T10:39:33;96840.03;;;6.71;80.85
20079;BME280;10199;48.850;8.924;2024-03-23T10:42:01;96752.59;;;4.85;86.45
20079;BME280;10199;48.850;8.924;2024-03-23T10:44:30;96900.38;;;5.56;92.28
20079;BME280;10199;48.850;8.924;2024-03-23T10:46:58;96861.66;;;4.54;93.33
20079;BME280;10199;48.850;8.924;2024-03-23T10:49:30;96901.28;;;4.83;95.02
20079;BME280;10199;48.850;8.924;2024-03-23T10:52:00;96910.94;;;5.07;95.59
20079;BME280;10199;48.850;8.924;2024-03-23T10:54:28;96870.78;;;5.31;94.82
20079;BME280;10199;48.850;8.924;2024-03-23T10:56:58;96865.25;;;5.65;94.72
20079;BME280;10199;48.850;8.924;2024-03-23T10:59:27;96861.13;;;5.70;93.84
20079;BME280;10199;48.850;8.924;2024-03-23T11:01:55;96857.59;;;5.94;94.26
20079;BME280;10199;48.850;8.924;2024-03-23T11:04:30;96835.88;;;5.69;94.70
20079;BME280;10199;48.850;8.924;2024-03-23T11:06:57;96852.22;;;7.54;95.32
20079;BME280;10199;48.850;8.924;2024-03-23T11:09:41;96848.56;;;8.36;95.80
20079;BME280;10199;48.850;8.924;2024-03-23T11:12:27;96840.03;;;7.53;92.04
20079;BME280;10199;48.850;8.924;2024-03-23T11:15:02;96879.69;;;8.47;91.69
20079;BME280;10199;48.850;8.924;2024-03-23T11:17:31;96821.69;;;8.89;94.04
20079;BME280;10199;48.850;8.924;2024-03-23T11:19:59;96828.50;;;8.77;90.58
20079;BME280;10199;48.850;8.924;2024-03-23T11:22:38;96568.63;;;6.63;85.61
20079;BME280;10199;48.850;8.924;2024-03-23T11:25:15;96829.31;;;9.34;89.28
20079;BME280;10199;48.850;8.924;2024-03-23T11:27:43;96825.81;;;8.99;84.22
20079;BME280;10199;48.850;8.924;2024-03-23T11:30:14;96844.78;;;9.43;81.43
20079;BME280;10199;48.850;8.924;2024-03-23T11:32:43;96850.84;;;8.81;80.80
20079;BME280;10199;48.850;8.924;2024-03-23T11:35:24;96838.97;;;8.71;82.30
20079;BME280;10199;48.850;8.924;2024-03-23T11:38:04;96265.56;;;4.90;77.79
20079;BME280;10199;48.850;8.924;2024-03-23T11:40:31;96843.03;;;7.94;74.92
20079;BME280;10199;48.850;8.924;2024-03-23T11:42:58;96838.34;;;8.11;73.25
20079;BME280;10199;48.850;8.924;2024-03-23T11:45:26;96853.25;;;8.04;74.10
20079;BME280;10199;48.850;8.924;2024-03-23T11:48:07;96790.88;;;7.10;73.11
20079;BME280;10199;48.850;8.924;2024-03-23T11:50:37;96685.00;;;6.19;72.77
20079;BME280;10199;48.850;8.924;2024-03-23T11:53:13;96829.69;;;7.52;70.19
20079;BME280;10199;48.850;8.924;2024-03-23T11:55:46;96819.69;;;7.77;69.03
20079;BME280;10199;48.850;8.924;2024-03-23T11:58:13;96528.41;;;5.89;69.33
20079;BME280;10199;48.850;8.924;2024-03-23T12:00:41;96819.56;;;8.36;67.10
20079;BME280;10199;48.850;8.924;2024-03-23T12:03:11;96584.03;;;6.66;66.31
20079;BME280;10199;48.850;8.924;2024-03-23T12:05:39;96339.19;;;5.84;68.04
20079;BME280;10199;48.850;8.924;2024-03-23T12:08:18;96781.56;;;7.73;68.89
20079;BME280;10199;48.850;8.924;2024-03-23T12:10:49;96791.38;;;8.15;65.85
20079;BME280;10199;48.850;8.924;2024-03-23T12:13:17;96825.44;;;9.02;67.71
20079;BME280;10199;48.850;8.924;2024-03-23T12:15:45;96803.44;;;8.45;68.05
20079;BME280;10199;48.850;8.924;2024-03-23T12:18:13;96793.75;;;8.95;67.53
20079;BME280;10199;48.850;8.924;2024-03-23T12:20:40;96797.59;;;8.28;68.56
20079;BME280;10199;48.850;8.924;2024-03-23T12:23:11;96696.88;;;7.84;69.90
20079;BME280;10199;48.850;8.924;2024-03-23T12:25:42;96793.69;;;8.24;69.01
20079;BME280;10199;48.850;8.924;2024-03-23T12:28:08;96799.44;;;8.49;69.37
20079;BME280;10199;48.850;8.924;2024-03-23T12:30:38;96788.28;;;8.11;68.31
20079;BME280;10199;48.850;8.924;2024-03-23T12:33:05;96783.00;;;7.90;68.68
20079;BME280;10199;48.850;8.924;2024-03-23T12:35:33;96795.53;;;8.45;69.54
20079;BME280;10199;48.850;8.924;2024-03-23T12:38:00;96793.53;;;9.59;67.23
20079;BME280;10199;48.850;8.924;2024-03-23T12:40:28;96718.28;;;9.01;65.99
20079;BME280;10199;48.850;8.924;2024-03-23T12:42:54;96796.28;;;8.60;68.00
20079;BME280;10199;48.850;8.924;2024-03-23T12:45:22;96801.97;;;8.21;67.06
20079;BME280;10199;48.850;8.924;2024-03-23T12:47:48;96819.31;;;8.52;65.65
20079;BME280;10199;48.850;8.924;2024-03-23T12:50:15;96793.41;;;8.55;64.28
20079;BME280;10199;48.850;8.924;2024-03-23T12:52:43;96785.59;;;8.90;63.47
20079;BME280;10199;48.850;8.924;2024-03-23T12:55:10;96788.19;;;9.52;63.04
20079;BME280;10199;48.850;8.924;2024-03-23T12:57:36;96781.50;;;8.87;61.69
20079;BME280;10199;48.850;8.924;2024-03-23T13:00:04;96440.63;;;6.35;62.38
20079;BME280;10199;48.850;8.924;2024-03-23T13:02:32;96785.06;;;9.36;64.97
20079;BME280;10199;48.850;8.924;2024-03-23T13:05:00;96642.13;;;8.50;61.60
20079;BME280;10199;48.850;8.924;2024-03-23T13:07:26;96478.72;;;7.03;58.82
20079;BME280;10199;48.850;8.924;2024-03-23T13:09:55;96743.34;;;8.83;58.63
20079;BME280;10199;48.850;8.924;2024-03-23T13:12:22;96776.59;;;9.53;60.94
20079;BME280;10199;48.850;8.924;2024-03-23T13:14:49;96767.06;;;9.52;59.78
20079;BME280;10199;48.850;8.924;2024-03-23T13:17:15;96684.88;;;8.73;59.67
20079;BME280;10199;48.850;8.924;2024-03-23T13:19:42;96761.88;;;8.97;58.13
20079;BME280;10199;48.850;8.924;2024-03-23T13:22:08;96744.56;;;9.56;57.22
20079;BME280;10199;48.850;8.924;2024-03-23T13:24:37;96602.38;;;8.23;56.20
20079;BME280;10199;48.850;8.924;2024-03-23T13:27:05;96734.94;;;10.10;56.46
20079;BME280;10199;48.850;8.924;2024-03-23T13:29:34;96675.75;;;9.78;57.75
20079;BME280;10199;48.850;8.924;2024-03-23T13:32:00;96737.25;;;9.58;58.83
20079;BME280;10199;48.850;8.924;2024-03-23T13:34:28;96767.31;;;8.88;59.29
20079;BME280;10199;48.850;8.924;2024-03-23T13:36:55;96775.09;;;8.47;61.64
20079;BME280;10199;48.850;8.924;2024-03-23T13:39:25;96796.63;;;7.79;65.87
20079;BME280;10199;48.850;8.924;2024-03-23T13:41:55;96729.56;;;6.27;74.63
20079;BME280;10199;48.850;8.924;2024-03-23T13:44:25;96713.38;;;5.08;83.05
20079;BME280;10199;48.850;8.924;2024-03-23T13:46:54;96612.69;;;4.00;87.08
20079;BME280;10199;48.850;8.924;2024-03-23T13:49:26;96833.75;;;5.09;88.51
20079;BME280;10199;48.850;8.924;2024-03-23T13:51:54;96845.25;;;4.92;91.75
20079;BME280;10199;48.850;8.924;2024-03-23T13:54:23;96734.00;;;4.07;93.32
20079;BME280;10199;48.850;8.924;2024-03-23T13:56:51;96767.72;;;4.34;91.33
20079;BME280;10199;48.850;8.924;2024-03-23T13:59:18;96738.28;;;4.40;90.90
20079;BME280;10199;48.850;8.924;2024-03-23T14:01:46;96654.06;;;3.96;91.33
20079;BME280;10199;48.850;8.924;2024-03-23T14:04:15;96860.81;;;5.02;93.10